Time;durP1;ratioP1;P1;durP2;ratioP2;P2;SDS_P1;SDS_P2;PMS_P1;PMS_P2;Temp;Humidity;BMP_temperature;BMP_pressure;BME280_temperature;BME280_humidity;BME280_pressure;Samples;Min_cycle;Max_cycle;Signal;HPM_P1;HPM_P2
2022/10/17 00:00:30;;;;;;;;;;;;;;;-144.99;100.00;52403.25;5072889;28;20300;-74
2022/10/17 00:02:56;;;;;;;;;;;;;;;-144.99;100.00;52358.41;5070427;28;19928;-73
2022/10/17 00:05:23;;;;;;;;;;;;;;;-144.99;100.00;52399.19;5070494;28;19930;-74
2022/10/17 00:07:50;;;;;;;;;;;;;;;-144.99;100.00;52393.06;5072602;28;20319;-73
2022/10/17 00:10:16;;;;;;;;;;;;;;;-144.99;100.00;52419.56;5071723;28;19973;-73
2022/10/17 00:12:44;;;;;;;;;;;;;;;-144.99;100.00;52391.03;5057029;28;19924;-70
2022/10/17 00:15:14;;;;;;;;;;;;;;;-144.99;100.00;52370.63;5071198;28;19959;-73
2022/10/17 00:17:40;;;;;;;;;;;;;;;-144.99;100.00;52374.72;5074297;28;19924;-74
2022/10/17 00:20:07;;;;;;;;;;;;;;;-144.99;100.00;52382.88;5073651;28;19924;-73
2022/10/17 00:22:34;;;;;;;;;;;;;;;-144.99;100.00;52374.72;5064503;28;20457;-71
2022/10/17 00:25:00;;;;;;;;;;;;;;;-144.99;100.00;52382.88;5069434;28;19931;-72
2022/10/17 00:27:26;;;;;;;;;;;;;;;-144.99;100.00;52384.91;5062543;28;19925;-72
2022/10/17 00:29:54;;;;;;;;;;;;;;;-144.99;100.00;52407.31;5072001;28;19924;-72
2022/10/17 00:32:21;;;;;;;;;;;;;;;-144.99;100.00;52403.25;5072017;28;20272;-72
2022/10/17 00:34:47;;;;;;;;;;;;;;;-144.99;100.00;52372.69;5070109;28;20344;-73
2022/10/17 00:37:13;;;;;;;;;;;;;;;-144.99;100.00;52386.94;5072475;28;19924;-73
2022/10/17 00:39:40;;;;;;;;;;;;;;;-144.99;100.00;52374.72;5071491;28;19931;-71
2022/10/17 00:42:06;;;;;;;;;;;;;;;-144.99;100.00;52403.25;5071156;28;19959;-72
2022/10/17 00:44:51;;;;;;;;;;;;;;;-144.99;100.00;52423.63;5062396;28;19931;-74
2022/10/17 00:47:21;;;;;;;;;;;;;;;-144.99;100.00;52372.69;5071556;28;20391;-75
2022/10/17 00:49:48;;;;;;;;;;;;;;;-144.99;100.00;52403.25;5068977;28;19930;-74
2022/10/17 00:52:17;;;;;;;;;;;;;;;-144.99;100.00;52399.19;5070063;28;19947;-75
2022/10/17 00:54:45;;;;;;;;;;;;;;;-144.99;100.00;52378.78;5058432;28;19954;-75
2022/10/17 00:57:12;;;;;;;;;;;;;;;-144.99;100.00;52401.22;5069955;28;19932;-74
2022/10/17 00:59:40;;;;;;;;;;;;;;;-144.99;100.00;52380.84;5069805;28;19959;-74
2022/10/17 01:02:08;;;;;;;;;;;;;;;-144.99;100.00;52384.91;5071585;28;19928;-74
2022/10/17 01:04:36;;;;;;;;;;;;;;;-144.99;100.00;52386.94;5069162;28;19928;-75
2022/10/17 01:07:03;;;;;;;;;;;;;;;-144.99;100.00;52411.41;5070797;28;19925;-75
2022/10/17 01:09:29;;;;;;;;;;;;;;;-144.99;100.00;52409.38;5071073;28;19940;-75
2022/10/17 01:12:03;;;;;;;;;;;;;;;-144.99;100.00;52391.03;5070412;28;20414;-75
2022/10/17 01:14:31;;;;;;;;;;;;;;;-144.99;100.00;52397.13;5070892;28;19943;-74
2022/10/17 01:17:02;;;;;;;;;;;;;;;-144.99;100.00;52366.56;5071767;28;19924;-74
2022/10/17 01:19:43;;;;;;;;;;;;;;;-144.99;100.00;52370.63;5062765;28;19930;-74
2022/10/17 01:22:17;;;;;;;;;;;;;;;-144.99;100.00;52403.25;5068135;28;19929;-74
2022/10/17 01:24:48;;;;;;;;;;;;;;;-144.99;100.00;52374.72;5071089;28;20339;-73
2022/10/17 01:27:25;;;;;;;;;;;;;;;-144.99;100.00;52393.06;5060860;28;19960;-72
2022/10/17 01:30:03;;;;;;;;;;;;;;;-144.99;100.00;52391.03;5066434;28;19956;-75
2022/10/17 01:32:35;;;;;;;;;;;;;;;-144.99;100.00;52411.41;5062829;28;20376;-73
2022/10/17 01:35:04;;;;;;;;;;;;;;;-144.99;100.00;52441.97;5057789;28;19931;-72
2022/10/17 01:37:33;;;;;;;;;;;;;;;-144.99;100.00;52401.22;5068780;28;20276;-70
2022/10/17 01:40:03;;;;;;;;;;;;;;;-144.99;100.00;52382.88;5070977;28;20080;-72
2022/10/17 01:42:33;;;;;;;;;;;;;;;-144.99;100.00;52374.72;5071033;28;19928;-71
2022/10/17 01:45:01;;;;;;;;;;;;;;;-144.99;100.00;52386.94;5071556;28;19925;-72
2022/10/17 01:47:30;;;;;;;;;;;;;;;-144.99;100.00;52370.63;5069078;28;19931;-72
2022/10/17 01:50:00;;;;;;;;;;;;;;;-144.99;100.00;52399.19;5068616;28;19947;-71
2022/10/17 01:52:28;;;;;;;;;;;;;;;-144.99;100.00;52395.09;5066032;28;19925;-75
2022/10/17 01:54:55;;;;;;;;;;;;;;;-144.99;100.00;52366.56;5070826;28;19924;-70
2022/10/17 01:57:26;;;;;;;;;;;;;;;-144.99;100.00;52407.31;5068442;28;19932;-70
2022/10/17 01:59:54;;;;;;;;;;;;;;;-144.99;100.00;52378.78;5067782;28;19924;-70
2022/10/17 02:02:21;;;;;;;;;;;;;;;-144.99;100.00;52407.31;5067267;28;19928;-70
2022/10/17 02:04:49;;;;;;;;;;;;;;;-144.99;100.00;52374.72;5069763;28;19924;-70
2022/10/17 02:07:17;;;;;;;;;;;;;;;-144.99;100.00;52372.69;5065553;28;19931;-70
2022/10/17 02:09:43;;;;;;;;;;;;;;;-144.99;100.00;52399.19;5069733;28;20366;-71
2022/10/17 02:12:14;;;;;;;;;;;;;;;-144.99;100.00;52374.72;5069467;28;19935;-70
2022/10/17 02:14:46;;;;;;;;;;;;;;;-144.99;100.00;52378.78;5066300;28;19929;-71
2022/10/17 02:17:17;;;;;;;;;;;;;;;-144.99;100.00;52429.75;5068084;28;19939;-70
2022/10/17 02:19:54;;;;;;;;;;;;;;;-144.99;100.00;52403.25;5069083;28;20284;-70
2022/10/17 02:22:28;;;;;;;;;;;;;;;-144.99;100.00;52378.78;5058148;28;19928;-70
2022/10/17 02:24:59;;;;;;;;;;;;;;;-144.99;100.00;52427.72;5069432;28;19939;-70
2022/10/17 02:27:33;;;;;;;;;;;;;;;-144.99;100.00;52372.69;5067819;28;19928;-71
2022/10/17 02:30:03;;;;;;;;;;;;;;;-144.99;100.00;52391.03;5069229;28;20403;-71
2022/10/17 02:32:33;;;;;;;;;;;;;;;-144.99;100.00;52382.88;5060964;28;19930;-70
2022/10/17 02:35:01;;;;;;;;;;;;;;;-144.99;100.00;52435.88;5069665;28;20046;-73
2022/10/17 02:37:30;;;;;;;;;;;;;;;-144.99;100.00;52352.28;5069026;28;19987;-72
2022/10/17 02:39:59;;;;;;;;;;;;;;;-144.99;100.00;52403.25;5066655;28;19929;-73
2022/10/17 02:42:27;;;;;;;;;;;;;;;-144.99;100.00;52409.38;5068807;28;19925;-73
2022/10/17 02:44:54;;;;;;;;;;;;;;;-144.99;100.00;52378.78;5070500;28;19928;-73
2022/10/17 02:47:22;;;;;;;;;;;;;;;-144.99;100.00;52397.13;5070275;28;19928;-74
2022/10/17 02:49:51;;;;;;;;;;;;;;;-144.99;100.00;52403.25;5068441;28;19924;-73
2022/10/17 02:52:21;;;;;;;;;;;;;;;-144.99;100.00;52421.59;5072914;28;20301;-73
2022/10/17 02:54:52;;;;;;;;;;;;;;;-144.99;100.00;52407.31;5069259;28;19924;-73
2022/10/17 02:57:22;;;;;;;;;;;;;;;-144.99;100.00;52376.75;5069757;28;19924;-73
2022/10/17 02:59:50;;;;;;;;;;;;;;;-144.99;100.00;52386.94;5065166;28;20326;-74
2022/10/17 03:02:16;;;;;;;;;;;;;;;-144.99;100.00;52403.25;5067268;28;20041;-73
2022/10/17 03:04:43;;;;;;;;;;;;;;;-144.99;100.00;52399.19;5068670;28;19958;-72
2022/10/17 03:07:09;;;;;;;;;;;;;;;-144.99;100.00;52366.56;5069215;28;19932;-71
2022/10/17 03:09:35;;;;;;;;;;;;;;;-144.99;100.00;52370.63;5068400;28;20319;-72
2022/10/17 03:12:03;;;;;;;;;;;;;;;-144.99;100.00;52370.63;5081488;28;19928;-72
2022/10/17 03:14:29;;;;;;;;;;;;;;;-144.99;100.00;52403.25;5065512;28;19924;-72
2022/10/17 03:16:56;;;;;;;;;;;;;;;-144.99;100.00;52376.75;5069156;28;19925;-72
2022/10/17 03:19:22;;;;;;;;;;;;;;;-144.99;100.00;52388.97;5057381;28;19925;-70
2022/10/17 03:21:48;;;;;;;;;;;;;;;-144.99;100.00;52407.31;5068644;28;19931;-71
2022/10/17 03:24:15;;;;;;;;;;;;;;;-144.99;100.00;52423.63;5068034;28;19925;-70
2022/10/17 03:26:41;;;;;;;;;;;;;;;-144.99;100.00;52409.38;5067902;28;19925;-71
2022/10/17 03:29:09;;;;;;;;;;;;;;;-144.99;100.00;52427.72;5068603;28;19931;-71
2022/10/17 03:31:35;;;;;;;;;;;;;;;-144.99;100.00;52378.78;5063183;28;20288;-74
2022/10/17 03:34:02;;;;;;;;;;;;;;;-144.99;100.00;52397.13;5065890;28;19924;-73
2022/10/17 03:36:28;;;;;;;;;;;;;;;-144.99;100.00;52354.34;5069416;28;19925;-74
2022/10/17 03:38:55;;;;;;;;;;;;;;;-144.99;100.00;52403.25;5068347;28;20307;-74
2022/10/17 03:41:21;;;;;;;;;;;;;;;-144.99;100.00;52382.88;5067419;28;19951;-73
2022/10/17 03:43:47;;;;;;;;;;;;;;;-144.99;100.00;52407.31;5068981;28;20040;-74
2022/10/17 03:46:15;;;;;;;;;;;;;;;-144.99;100.00;52415.47;5063822;28;19925;-74
2022/10/17 03:48:41;;;;;;;;;;;;;;;-144.99;100.00;52395.09;5063372;28;19948;-72
2022/10/17 03:51:08;;;;;;;;;;;;;;;-144.99;100.00;52399.19;5072760;28;19931;-73
2022/10/17 03:53:35;;;;;;;;;;;;;;;-144.99;100.00;52354.34;5072196;28;19951;-73
2022/10/17 03:56:08;;;;;;;;;;;;;;;-144.99;100.00;52415.47;5074941;28;19943;-73
2022/10/17 03:58:35;;;;;;;;;;;;;;;-144.99;100.00;52368.59;5076635;28;19936;-72
2022/10/17 04:01:03;;;;;;;;;;;;;;;-144.99;100.00;52429.75;5064656;28;19935;-72
2022/10/17 04:03:32;;;;;;;;;;;;;;;-144.99;100.00;52386.94;5075328;28;19987;-72
2022/10/17 04:05:58;;;;;;;;;;;;;;;-144.99;100.00;52364.53;5074552;28;19965;-73
2022/10/17 04:08:25;;;;;;;;;;;;;;;-144.99;100.00;52395.09;5075599;28;19932;-72
2022/10/17 04:10:51;;;;;;;;;;;;;;;-144.99;100.00;52395.09;5067587;28;20054;-72
2022/10/17 04:13:18;;;;;;;;;;;;;;;-144.99;100.00;52395.09;5072239;28;19924;-74
2022/10/17 04:15:53;;;;;;;;;;;;;;;-144.99;100.00;52403.25;5067893;28;19944;-72
2022/10/17 04:18:19;;;;;;;;;;;;;;;-144.99;100.00;52399.19;5072894;28;19939;-73
2022/10/17 04:20:47;;;;;;;;;;;;;;;-144.99;100.00;52378.78;5071946;28;19924;-72
2022/10/17 04:23:13;;;;;;;;;;;;;;;-144.99;100.00;52415.47;5068216;28;20080;-73
2022/10/17 04:25:39;;;;;;;;;;;;;;;-144.99;100.00;52393.06;5072527;28;20348;-73
2022/10/17 04:28:06;;;;;;;;;;;;;;;-144.99;100.00;52419.56;5070548;28;20316;-73
2022/10/17 04:30:32;;;;;;;;;;;;;;;-144.99;100.00;52407.31;5072611;28;19982;-73
2022/10/17 04:32:59;;;;;;;;;;;;;;;-144.99;100.00;52427.72;5069496;28;19924;-73
2022/10/17 04:35:25;;;;;;;;;;;;;;;-144.99;100.00;52374.72;5071666;28;20295;-74
2022/10/17 04:37:53;;;;;;;;;;;;;;;-144.99;100.00;52399.19;5071370;28;20454;-73
2022/10/17 04:40:19;;;;;;;;;;;;;;;-144.99;100.00;52444.03;5071568;28;19925;-73
2022/10/17 04:42:46;;;;;;;;;;;;;;;-144.99;100.00;52366.56;5066119;28;19947;-74
2022/10/17 04:47:51;;;;;;;;;;;;;;;-144.99;100.00;52407.31;5054417;28;20050;-74
2022/10/17 04:50:18;;;;;;;;;;;;;;;-144.99;100.00;52386.94;5074642;28;20425;-76
2022/10/17 04:52:44;;;;;;;;;;;;;;;-144.99;100.00;52415.47;5074123;28;19928;-75
2022/10/17 04:55:12;;;;;;;;;;;;;;;-144.99;100.00;52403.25;5069198;28;20022;-77
2022/10/17 04:57:38;;;;;;;;;;;;;;;-144.99;100.00;52403.25;5068700;28;19924;-75
2022/10/17 05:00:05;;;;;;;;;;;;;;;-144.99;100.00;52370.63;5065482;28;20383;-76
2022/10/17 05:02:31;;;;;;;;;;;;;;;-144.99;100.00;52407.31;4367397;28;10000643;-78
2022/10/17 05:04:57;;;;;;;;;;;;;;;-144.99;100.00;52391.03;5066805;28;19928;-76
2022/10/17 05:07:24;;;;;;;;;;;;;;;-144.99;100.00;52386.94;5074084;28;20292;-75
2022/10/17 05:09:50;;;;;;;;;;;;;;;-144.99;100.00;52376.75;5065816;28;19962;-76
2022/10/17 05:12:18;;;;;;;;;;;;;;;-144.99;100.00;52378.78;5067955;28;19932;-77
2022/10/17 05:14:44;;;;;;;;;;;;;;;-144.99;100.00;52384.91;5065360;28;19932;-77
2022/10/17 05:17:10;;;;;;;;;;;;;;;-144.99;100.00;52391.03;5061988;28;19928;-75
2022/10/17 05:19:37;;;;;;;;;;;;;;;-144.99;100.00;52399.19;5063154;28;19932;-75
2022/10/17 05:22:03;;;;;;;;;;;;;;;-144.99;100.00;52429.75;5061619;28;20134;-77
2022/10/17 05:24:29;;;;;;;;;;;;;;;-144.99;100.00;52382.88;5061358;28;19924;-76
2022/10/17 05:26:56;;;;;;;;;;;;;;;-144.99;100.00;52435.88;5058370;28;19928;-74
2022/10/17 05:29:24;;;;;;;;;;;;;;;-144.99;100.00;52403.25;5058676;28;19935;-75
2022/10/17 05:31:50;;;;;;;;;;;;;;;-144.99;100.00;52407.31;5055930;28;19933;-75
2022/10/17 05:34:16;;;;;;;;;;;;;;;-144.99;100.00;52395.09;5055903;28;20012;-74
2022/10/17 05:36:43;;;;;;;;;;;;;;;-144.99;100.00;52399.19;5054873;28;20085;-76
2022/10/17 05:39:09;;;;;;;;;;;;;;;-144.99;100.00;52399.19;5056739;28;19939;-75
2022/10/17 05:41:35;;;;;;;;;;;;;;;-144.99;100.00;52386.94;5058662;28;19928;-76
2022/10/17 05:44:02;;;;;;;;;;;;;;;-144.99;100.00;52382.88;5055316;28;19929;-73
2022/10/17 05:46:29;;;;;;;;;;;;;;;-144.99;100.00;52374.72;5055529;28;19929;-78
2022/10/17 05:48:56;;;;;;;;;;;;;;;-144.99;100.00;52399.19;5058170;28;19928;-77
2022/10/17 05:51:22;;;;;;;;;;;;;;;-144.99;100.00;52366.56;5057138;28;20148;-76
2022/10/17 05:53:48;;;;;;;;;;;;;;;-144.99;100.00;52399.19;5059268;28;19928;-77
2022/10/17 05:56:15;;;;;;;;;;;;;;;-144.99;100.00;52395.09;5057404;28;19955;-75
2022/10/17 05:58:42;;;;;;;;;;;;;;;-144.99;100.00;52382.88;5060717;28;19928;-76
2022/10/17 06:01:10;;;;;;;;;;;;;;;-144.99;100.00;52433.81;5057636;28;19929;-77
2022/10/17 06:03:37;;;;;;;;;;;;;;;-144.99;100.00;52395.09;5057954;28;21151;-76
2022/10/17 06:06:04;;;;;;;;;;;;;;;-144.99;100.00;52423.63;5058633;28;20858;-76
2022/10/17 06:08:31;;;;;;;;;;;;;;;-144.99;100.00;52386.94;5056838;28;19928;-80
2022/10/17 06:10:57;;;;;;;;;;;;;;;-144.99;100.00;52417.53;5059679;28;19940;-74
2022/10/17 06:13:24;;;;;;;;;;;;;;;-144.99;100.00;52374.72;5057130;28;20082;-77
2022/10/17 06:15:50;;;;;;;;;;;;;;;-144.99;100.00;52388.97;5058193;28;19928;-76
2022/10/17 06:18:16;;;;;;;;;;;;;;;-144.99;100.00;52388.97;5054218;28;19932;-77
2022/10/17 06:20:44;;;;;;;;;;;;;;;-144.99;100.00;52358.41;5058161;28;19932;-77
2022/10/17 06:23:10;;;;;;;;;;;;;;;-144.99;100.00;52382.88;5057668;28;20020;-76
2022/10/17 06:25:37;;;;;;;;;;;;;;;-144.99;100.00;52386.94;5060681;28;20507;-74
2022/10/17 06:28:03;;;;;;;;;;;;;;;-144.99;100.00;52366.56;5054467;28;19967;-74
2022/10/17 06:30:30;;;;;;;;;;;;;;;-144.99;100.00;52403.25;5057209;28;19928;-76
2022/10/17 06:32:56;;;;;;;;;;;;;;;-144.99;100.00;52395.09;5056573;28;20414;-74
2022/10/17 06:35:23;;;;;;;;;;;;;;;-144.99;100.00;52374.72;5056968;28;19928;-76
2022/10/17 06:37:50;;;;;;;;;;;;;;;-144.99;100.00;52395.09;5056788;28;20438;-76
2022/10/17 06:40:17;;;;;;;;;;;;;;;-144.99;100.00;52382.88;5056699;28;19932;-76
2022/10/17 06:42:43;;;;;;;;;;;;;;;-144.99;100.00;52358.41;5057348;28;19932;-76
2022/10/17 06:45:10;;;;;;;;;;;;;;;-144.99;100.00;52386.94;5059111;28;19930;-77
2022/10/17 06:47:37;;;;;;;;;;;;;;;-144.99;100.00;52413.44;4705622;28;10000241;-73
2022/10/17 06:50:03;;;;;;;;;;;;;;;-144.99;100.00;52358.41;5056277;28;19932;-76
2022/10/17 06:52:29;;;;;;;;;;;;;;;-144.99;100.00;52382.88;4712633;28;9999698;-76
2022/10/17 06:54:57;;;;;;;;;;;;;;;-144.99;100.00;52362.50;5060241;28;19936;-79
2022/10/17 06:57:23;;;;;;;;;;;;;;;-144.99;100.00;52362.50;5064337;28;20374;-77
2022/10/17 06:59:50;;;;;;;;;;;;;;;-144.99;99.15;52358.41;5053556;28;19932;-79
2022/10/17 07:02:16;;;;;;;;;;;;;;;-144.99;97.69;52366.56;5058534;28;19929;-78
2022/10/17 07:04:42;;;;;;;;;;;;;;;-144.99;96.16;52386.94;5060237;28;20003;-76
2022/10/17 07:07:09;;;;;;;;;;;;;;;-144.99;95.34;52358.41;5064907;28;19962;-77
2022/10/17 07:09:35;;;;;;;;;;;;;;;-144.99;95.44;52329.88;5061068;28;19932;-77
2022/10/17 07:12:06;;;;;;;;;;;;;;;-144.99;94.50;52362.50;5062480;28;20380;-76
2022/10/17 07:14:33;;;;;;;;;;;;;;;-144.99;93.18;52327.84;5064836;28;19935;-76
2022/10/17 07:16:59;;;;;;;;;;;;;;;-144.99;92.57;52305.41;5052538;28;19929;-79
2022/10/17 07:19:26;;;;;;;;;;;;;;;-144.99;91.19;52333.94;5066876;28;19924;-77
2022/10/17 07:21:52;;;;;;;;;;;;;;;-144.99;90.80;52329.88;5068835;28;19925;-79
2022/10/17 07:24:19;;;;;;;;;;;;;;;-144.99;91.08;52333.94;5075992;28;20056;-78
2022/10/17 07:26:45;;;;;;;;;;;;;;;-144.99;92.45;52350.25;5072315;28;19929;-78
2022/10/17 07:29:13;;;;;;;;;;;;;;;-144.99;92.35;52329.88;5062156;28;19925;-78
2022/10/17 07:31:39;;;;;;;;;;;;;;;-144.99;92.69;52331.91;5068252;28;19954;-76
2022/10/17 07:34:05;;;;;;;;;;;;;;;-144.99;92.84;52358.41;5059401;28;20020;-78
2022/10/17 07:36:33;;;;;;;;;;;;;;;-144.99;92.39;52374.72;5064963;28;19946;-79
2022/10/17 07:39:00;;;;;;;;;;;;;;;-144.99;93.14;52333.94;5065296;28;19950;-77
2022/10/17 07:41:26;;;;;;;;;;;;;;;-144.99;92.83;52366.56;5069096;28;19934;-79
2022/10/17 07:43:53;;;;;;;;;;;;;;;-144.99;93.22;52319.69;5065312;28;19948;-77
2022/10/17 07:46:20;;;;;;;;;;;;;;;-144.99;92.91;52338.03;5060362;28;20431;-78
2022/10/17 07:48:47;;;;;;;;;;;;;;;-144.99;92.54;52333.94;5070595;28;19963;-76
2022/10/17 07:51:13;;;;;;;;;;;;;;;-144.99;91.28;52293.19;5071512;28;19935;-78
2022/10/17 07:53:41;;;;;;;;;;;;;;;-144.99;88.92;52305.41;5070917;28;19936;-77
2022/10/17 07:56:08;;;;;;;;;;;;;;;-144.99;86.72;52338.03;5067135;28;19979;-78
2022/10/17 07:58:36;;;;;;;;;;;;;;;-144.99;85.73;52297.25;5066925;28;20217;-78
2022/10/17 08:01:02;;;;;;;;;;;;;;;-144.99;86.02;52313.56;5074950;28;19982;-77
2022/10/17 08:03:30;;;;;;;;;;;;;;;-144.99;87.13;52297.25;5070339;28;19928;-78
2022/10/17 08:05:57;;;;;;;;;;;;;;;-144.99;87.86;52333.94;5069042;28;19929;-78
2022/10/17 08:08:23;;;;;;;;;;;;;;;-144.99;90.02;52315.59;5070022;28;20300;-76
2022/10/17 08:10:49;;;;;;;;;;;;;;;-144.99;90.76;52378.78;5065627;28;20008;-78
2022/10/17 08:13:16;;;;;;;;;;;;;;;-144.99;93.16;52329.88;5069443;28;20340;-77
2022/10/17 08:15:42;;;;;;;;;;;;;;;-144.99;94.32;52319.69;5058268;28;20318;-78
2022/10/17 08:18:09;;;;;;;;;;;;;;;-144.99;93.96;52325.81;5061752;28;19940;-78
2022/10/17 08:20:36;;;;;;;;;;;;;;;-144.99;93.89;52378.78;5063854;28;19929;-78
2022/10/17 08:23:03;;;;;;;;;;;;;;;-144.99;93.97;52362.50;5069126;28;20019;-77
2022/10/17 08:25:29;;;;;;;;;;;;;;;-144.99;93.63;52313.56;5063106;28;19924;-75
2022/10/17 08:27:55;;;;;;;;;;;;;;;-144.99;93.27;52321.72;5063517;28;19924;-78
2022/10/17 08:30:22;;;;;;;;;;;;;;;-144.99;91.94;52327.84;5079400;28;19959;-76
2022/10/17 08:32:48;;;;;;;;;;;;;;;-144.99;91.70;52305.41;5069964;28;20442;-77
2022/10/17 08:35:14;;;;;;;;;;;;;;;-144.99;91.12;52297.25;5080116;28;20083;-79
2022/10/17 08:37:42;;;;;;;;;;;;;;;-144.99;90.78;52317.66;5053722;28;20032;-78
2022/10/17 08:40:14;;;;;;;;;;;;;;;-144.99;90.73;52293.19;5066939;28;20383;-77
2022/10/17 08:42:50;;;;;;;;;;;;;;;-144.99;90.86;52325.81;5074352;28;19928;-77
2022/10/17 08:45:20;;;;;;;;;;;;;;;-144.99;90.35;52338.03;5083659;28;19931;-78
2022/10/17 08:47:48;;;;;;;;;;;;;;;-144.99;88.94;52293.19;5070527;28;20315;-78
2022/10/17 08:50:29;;;;;;;;;;;;;;;-144.99;89.32;52297.25;5058494;28;19939;-79
2022/10/17 08:53:01;;;;;;;;;;;;;;;-144.99;87.53;52293.19;5060713;28;20364;-76
2022/10/17 08:55:29;;;;;;;;;;;;;;;-144.99;87.31;52297.25;5062808;28;19935;-78
2022/10/17 08:57:55;;;;;;;;;;;;;;;-144.99;87.33;52256.50;5062880;28;19932;-76
2022/10/17 09:00:22;;;;;;;;;;;;;;;-144.99;86.28;52283.00;5066226;28;19940;-78
2022/10/17 09:02:55;;;;;;;;;;;;;;;-144.99;85.00;52276.88;5061332;28;19939;-75
2022/10/17 09:05:30;;;;;;;;;;;;;;;-144.99;83.78;52297.25;5067497;28;19938;-77
2022/10/17 09:08:02;;;;;;;;;;;;;;;-144.99;84.71;52299.31;5077308;28;19943;-76
2022/10/17 09:10:33;;;;;;;;;;;;;;;-144.99;84.95;52285.03;5063558;28;19932;-80
2022/10/17 09:13:07;;;;;;;;;;;;;;;-144.99;85.40;52289.13;5050463;28;19932;-78
2022/10/17 09:15:38;;;;;;;;;;;;;;;-144.99;86.33;52258.53;5061445;28;19935;-80
2022/10/17 09:18:09;;;;;;;;;;;;;;;-144.99;85.93;52293.19;5074096;28;19924;-78
2022/10/17 09:20:38;;;;;;;;;;;;;;;-144.99;87.30;52256.50;5069369;28;19928;-80
2022/10/17 09:23:10;;;;;;;;;;;;;;;-144.99;87.59;52289.13;5061444;28;19928;-78
2022/10/17 09:25:41;;;;;;;;;;;;;;;-144.99;86.95;52278.91;5068536;28;20334;-79
2022/10/17 09:28:12;;;;;;;;;;;;;;;-144.99;84.73;52227.97;5075521;28;19924;-79
2022/10/17 09:30:42;;;;;;;;;;;;;;;-144.99;82.74;52256.50;5057487;28;19973;-76
2022/10/17 09:33:12;;;;;;;;;;;;;;;-144.99;79.41;52215.75;5077729;28;19963;-78
2022/10/17 09:35:40;;;;;;;;;;;;;;;-144.99;77.32;52219.81;5075689;28;19929;-78
2022/10/17 09:38:12;;;;;;;;;;;;;;;-144.99;74.95;52187.19;5073395;28;19928;-79
2022/10/17 09:40:38;;;;;;;;;;;;;;;-144.99;71.33;52203.50;5049668;28;20418;-78
2022/10/17 09:43:05;;;;;;;;;;;;;;;-144.99;69.04;52223.88;5070417;28;19928;-79
2022/10/17 09:45:36;;;;;;;;;;;;;;;-144.99;70.28;52250.38;5078547;28;19928;-77
2022/10/17 09:48:09;;;;;;;;;;;;;;;-144.99;70.73;52203.50;5077850;28;19935;-77
2022/10/17 09:50:35;;;;;;;;;;;;;;;-144.99;70.79;52244.28;5056275;28;19938;-78
2022/10/17 09:53:02;;;;;;;;;;;;;;;-144.99;70.66;52217.78;5063962;28;19928;-78
2022/10/17 09:55:37;;;;;;;;;;;;;;;-144.99;70.32;52187.19;5078148;28;19928;-78
2022/10/17 09:58:05;;;;;;;;;;;;;;;-144.99;68.55;52232.03;5058207;28;19928;-78
2022/10/17 10:00:33;;;;;;;;;;;;;;;-144.99;68.13;52199.44;5050136;28;19939;-78
2022/10/17 10:03:09;;;;;;;;;;;;;;;-144.99;68.06;52246.31;5059094;28;20264;-77
2022/10/17 10:05:36;;;;;;;;;;;;;;;-144.99;67.94;52244.28;5072238;28;20403;-78
2022/10/17 10:08:03;;;;;;;;;;;;;;;-144.99;69.42;52236.13;5069540;28;19935;-79
2022/10/17 10:10:30;;;;;;;;;;;;;;;-144.99;72.24;52248.34;5064103;28;19944;-79
2022/10/17 10:13:06;;;;;;;;;;;;;;;-144.99;72.90;52250.38;5080346;28;20007;-81
2022/10/17 10:15:34;;;;;;;;;;;;;;;-144.99;72.62;52211.66;5084176;28;20109;-79
2022/10/17 10:18:00;;;;;;;;;;;;;;;-144.99;72.83;52223.88;5071297;28;19928;-79
2022/10/17 10:20:29;;;;;;;;;;;;;;;-144.99;72.79;52248.34;5069808;28;20366;-81
2022/10/17 10:23:12;;;;;;;;;;;;;;;-144.99;71.79;52252.44;4725782;28;10000492;-79
2022/10/17 10:25:40;;;;;;;;;;;;;;;-144.99;72.80;52236.13;5068842;28;19936;-79
2022/10/17 10:28:11;;;;;;;;;;;;;;;-144.99;73.46;52276.88;5068610;28;20240;-79
2022/10/17 10:30:37;;;;;;;;;;;;;;;-144.99;73.25;52293.19;5065427;28;19924;-82
2022/10/17 10:33:04;;;;;;;;;;;;;;;-144.99;74.88;52248.34;5059912;28;19925;-79
2022/10/17 10:35:32;;;;;;;;;;;;;;;-144.99;77.35;52268.72;5063003;28;20650;-79
2022/10/17 10:37:58;;;;;;;;;;;;;;;-144.99;78.69;52268.72;5068169;28;19935;-78
2022/10/17 10:40:27;;;;;;;;;;;;;;;-144.99;79.92;52283.00;5055151;28;19929;-81
2022/10/17 10:42:56;;;;;;;;;;;;;;;-144.99;80.77;52287.06;5062467;28;19928;-80
2022/10/17 10:45:25;;;;;;;;;;;;;;;-144.99;80.80;52268.72;5063207;28;19925;-79
2022/10/17 10:47:52;;;;;;;;;;;;;;;-144.99;80.83;52293.19;5064364;28;19938;-80
2022/10/17 10:50:31;;;;;;;;;;;;;;;-144.99;80.96;52280.97;5058425;28;19936;-80
2022/10/17 10:53:20;;;;;;;;;;;;;;;-144.99;81.70;52285.03;5065195;28;19929;-79
2022/10/17 10:55:49;;;;;;;;;;;;;;;-144.99;82.71;52299.31;5054466;28;20273;-80
2022/10/17 10:58:23;;;;;;;;;;;;;;;-144.99;82.72;52240.19;5065919;28;19924;-79
2022/10/17 11:00:52;;;;;;;;;;;;;;;-144.99;83.08;52305.41;5065333;28;19928;-79
2022/10/17 11:03:21;;;;;;;;;;;;;;;-144.99;83.94;52321.72;5061767;28;19928;-78
2022/10/17 11:05:50;;;;;;;;;;;;;;;-144.99;83.43;52293.19;5062121;28;19932;-78
2022/10/17 11:08:21;;;;;;;;;;;;;;;-144.99;83.80;52309.50;5062176;28;19935;-80
2022/10/17 11:10:53;;;;;;;;;;;;;;;-144.99;83.86;52272.81;5064076;28;19932;-78
2022/10/17 11:13:22;;;;;;;;;;;;;;;-144.99;84.13;52305.41;5071227;28;20007;-78
2022/10/17 11:15:51;;;;;;;;;;;;;;;-144.99;83.83;52272.81;5065298;28;19964;-83
2022/10/17 11:18:22;;;;;;;;;;;;;;;-144.99;84.59;52338.03;5056158;28;19928;-80
2022/10/17 11:20:51;;;;;;;;;;;;;;;-144.99;84.06;52338.03;5059625;28;19924;-80
2022/10/17 11:23:20;;;;;;;;;;;;;;;-144.99;84.84;52297.25;5064039;28;19929;-78
2022/10/17 11:25:48;;;;;;;;;;;;;;;-144.99;84.20;52270.78;5061030;28;19925;-80
2022/10/17 11:28:15;;;;;;;;;;;;;;;-144.99;83.22;52293.19;5066037;28;19925;-78
2022/10/17 11:30:45;;;;;;;;;;;;;;;-144.99;83.26;52333.94;5054611;28;19962;-78
2022/10/17 11:33:15;;;;;;;;;;;;;;;-144.99;83.00;52285.03;5062304;28;19932;-78
2022/10/17 11:35:45;;;;;;;;;;;;;;;-144.99;83.46;52289.13;5071114;28;19932;-77
2022/10/17 11:38:16;;;;;;;;;;;;;;;-144.99;83.97;52301.34;5054872;28;19964;-77
2022/10/17 11:40:45;;;;;;;;;;;;;;;-144.99;84.67;52309.50;5056513;28;19929;-78
2022/10/17 11:43:14;;;;;;;;;;;;;;;-144.99;85.35;52276.88;5057108;28;19950;-78
2022/10/17 11:45:44;;;;;;;;;;;;;;;-144.99;85.42;52289.13;5066438;28;19929;-76
2022/10/17 11:48:13;;;;;;;;;;;;;;;-144.99;85.41;52305.41;5065058;28;19935;-79
2022/10/17 11:50:42;;;;;;;;;;;;;;;-144.99;85.07;52305.41;5059771;28;19924;-81
2022/10/17 11:53:13;;;;;;;;;;;;;;;-144.99;85.23;52248.34;5059373;28;19931;-79
2022/10/17 11:55:41;;;;;;;;;;;;;;;-144.99;84.92;52270.78;5059196;28;19967;-79
2022/10/17 11:58:24;;;;;;;;;;;;;;;-144.99;84.54;52317.66;5058983;28;19940;-80
2022/10/17 12:00:54;;;;;;;;;;;;;;;-144.99;85.02;52287.06;5054489;28;19928;-77
2022/10/17 12:03:34;;;;;;;;;;;;;;;-144.99;84.29;52280.97;5063176;28;19929;-78
2022/10/17 12:06:03;;;;;;;;;;;;;;;-144.99;85.08;52252.44;5062797;28;19935;-77
2022/10/17 12:08:34;;;;;;;;;;;;;;;-144.99;85.02;52309.50;5061363;28;19935;-78
2022/10/17 12:11:03;;;;;;;;;;;;;;;-144.99;85.58;52309.50;5063482;28;20344;-78
2022/10/17 12:13:48;;;;;;;;;;;;;;;-144.99;88.39;52325.81;5063665;28;19939;-80
2022/10/17 12:16:37;;;;;;;;;;;;;;;-144.99;90.99;52289.13;5073685;28;20390;-75
2022/10/17 12:19:22;;;;;;;;;;;;;;;-144.99;96.61;52338.03;5070059;28;19924;-79
2022/10/17 12:21:53;;;;;;;;;;;;;;;-144.99;100.00;52325.81;5062171;28;19936;-80
2022/10/17 12:24:27;;;;;;;;;;;;;;;-144.99;100.00;52305.41;5057754;28;20027;-78
2022/10/17 12:26:53;;;;;;;;;;;;;;;-144.99;100.00;52350.25;5071516;28;19942;-78
2022/10/17 12:29:26;;;;;;;;;;;;;;;-144.99;100.00;52329.88;5067598;28;19928;-78